Time;durP1;ratioP1;P1;durP2;ratioP2;P2;SDS_P1;SDS_P2;PMS_P1;PMS_P2;Temp;Humidity;BMP_temperature;BMP_pressure;BME280_temperature;BME280_humidity;BME280_pressure;Samples;Min_cycle;Max_cycle;Signal;HPM_P1;HPM_P2
2021/07/17 00:02:08;;;;;;;1.57;1.50;;;19.50;98.00;;;;;;5090460;28;20766;-68
2021/07/17 00:04:35;;;;;;;1.73;1.63;;;19.40;98.00;;;;;;5091593;28;20935;-68
2021/07/17 00:07:03;;;;;;;1.97;1.77;;;19.40;98.00;;;;;;5091604;28;20456;-69
2021/07/17 00:09:30;;;;;;;1.90;1.67;;;19.50;98.00;;;;;;5091784;28;20467;-68
2021/07/17 00:11:57;;;;;;;3.30;1.63;;;19.50;98.00;;;;;;5091576;28;20575;-68
2021/07/17 00:14:24;;;;;;;2.23;1.73;;;19.40;98.00;;;;;;5090183;28;20491;-68
2021/07/17 00:16:53;;;;;;;1.77;1.40;;;19.30;98.00;;;;;;5094631;28;20459;-68
2021/07/17 00:19:20;;;;;;;1.60;1.50;;;19.30;98.00;;;;;;5093775;28;20451;-68
2021/07/17 00:21:47;;;;;;;1.67;1.67;;;19.30;98.00;;;;;;5095032;28;20877;-68
2021/07/17 00:24:14;;;;;;;1.47;1.30;;;19.20;98.00;;;;;;5094890;28;20472;-69
2021/07/17 00:26:42;;;;;;;2.60;2.10;;;19.20;98.00;;;;;;5094748;28;20501;-65
2021/07/17 00:29:09;;;;;;;1.97;1.60;;;19.30;98.00;;;;;;5095159;28;20480;-66
2021/07/17 00:31:36;;;;;;;2.00;1.70;;;19.40;98.00;;;;;;5094677;28;20526;-66
2021/07/17 00:34:05;;;;;;;2.57;2.27;;;19.30;98.00;;;;;;5094705;28;20448;-65
2021/07/17 00:36:32;;;;;;;1.50;1.30;;;19.30;98.00;;;;;;5094695;28;20483;-65
2021/07/17 00:38:59;;;;;;;1.67;1.63;;;19.20;98.00;;;;;;5094718;28;20487;-65
2021/07/17 00:41:26;;;;;;;4.30;1.93;;;19.30;98.00;;;;;;5093876;28;20494;-65
2021/07/17 00:43:53;;;;;;;1.53;1.50;;;19.20;98.00;;;;;;5093911;28;20521;-65
2021/07/17 00:46:20;;;;;;;2.50;2.17;;;19.20;98.00;;;;;;5093949;28;20456;-65
2021/07/17 00:48:47;;;;;;;1.93;1.70;;;19.10;98.00;;;;;;5093914;28;20494;-66
2021/07/17 00:51:19;;;;;;;2.50;1.97;;;18.90;98.00;;;;;;5094155;28;20536;-66
2021/07/17 00:53:46;;;;;;;1.60;1.50;;;18.80;98.00;;;;;;5094842;28;20467;-65
2021/07/17 00:56:15;;;;;;;3.63;2.03;;;18.70;98.00;;;;;;5094211;28;20491;-65
2021/07/17 00:58:46;;;;;;;1.80;1.70;;;18.80;98.00;;;;;;5094270;28;20517;-67
2021/07/17 01:01:14;;;;;;;1.83;1.73;;;18.70;98.00;;;;;;5094300;28;20484;-68
2021/07/17 01:03:41;;;;;;;2.80;1.60;;;18.70;98.00;;;;;;5094275;28;20495;-67
2021/07/17 01:06:11;;;;;;;3.47;2.63;;;18.70;98.00;;;;;;5094179;28;20542;-68
2021/07/17 01:08:40;;;;;;;2.73;1.87;;;18.80;98.00;;;;;;5094171;28;20453;-68
2021/07/17 01:11:08;;;;;;;2.33;1.77;;;18.90;98.00;;;;;;5094008;28;20479;-68
2021/07/17 01:13:35;;;;;;;1.93;1.87;;;18.80;98.00;;;;;;5094181;28;20485;-68
2021/07/17 01:16:02;;;;;;;1.73;1.23;;;18.80;98.00;;;;;;5094233;28;20496;-68
2021/07/17 01:18:31;;;;;;;2.00;1.60;;;18.80;98.00;;;;;;5093887;28;20505;-68
2021/07/17 01:20:58;;;;;;;2.30;1.60;;;18.70;98.00;;;;;;5093928;28;20552;-67
2021/07/17 01:23:27;;;;;;;1.90;1.80;;;18.60;98.00;;;;;;5093712;28;20982;-69
2021/07/17 01:25:54;;;;;;;2.47;1.80;;;18.60;98.00;;;;;;5093820;28;21023;-68
2021/07/17 01:28:21;;;;;;;11.60;2.53;;;18.50;98.00;;;;;;5093957;28;20488;-67
2021/07/17 01:30:48;;;;;;;5.53;2.40;;;18.50;98.00;;;;;;5092666;28;20588;-67
2021/07/17 01:33:15;;;;;;;3.20;1.60;;;18.60;98.00;;;;;;5093884;28;20483;-68
2021/07/17 01:35:44;;;;;;;3.83;1.83;;;18.70;98.00;;;;;;5094014;28;20456;-68
2021/07/17 01:38:11;;;;;;;2.90;2.20;;;18.60;98.00;;;;;;5093776;28;20455;-67
2021/07/17 01:40:39;;;;;;;2.67;2.10;;;18.60;98.00;;;;;;5093724;28;20456;-68
2021/07/17 01:43:08;;;;;;;1.97;1.90;;;18.50;98.00;;;;;;5093193;28;20448;-68
2021/07/17 01:45:38;;;;;;;1.27;1.27;;;18.60;98.00;;;;;;5093230;28;20449;-68
2021/07/17 01:48:07;;;;;;;1.93;1.40;;;18.60;98.00;;;;;;5093066;28;20464;-68
2021/07/17 01:50:36;;;;;;;2.13;1.40;;;18.50;98.00;;;;;;5093158;28;20451;-69
2021/07/17 01:53:07;;;;;;;1.30;1.30;;;18.40;98.00;;;;;;5093115;28;20534;-67
2021/07/17 01:55:35;;;;;;;1.83;1.67;;;18.50;98.00;;;;;;5091842;28;21001;-68
2021/07/17 01:58:04;;;;;;;1.53;1.47;;;18.40;98.00;;;;;;5092928;28;21103;-67
2021/07/17 02:00:31;;;;;;;1.87;1.83;;;18.50;98.00;;;;;;5093130;28;20452;-68
2021/07/17 02:02:58;;;;;;;1.87;1.63;;;18.40;98.00;;;;;;5093120;28;20501;-68
2021/07/17 02:05:26;;;;;;;1.87;1.77;;;18.40;98.00;;;;;;5092980;28;20503;-67
2021/07/17 02:07:54;;;;;;;3.73;1.90;;;18.40;98.00;;;;;;5092923;28;20540;-67
2021/07/17 02:10:23;;;;;;;3.40;1.60;;;18.60;98.00;;;;;;5092841;28;20495;-68
2021/07/17 02:12:57;;;;;;;2.17;1.60;;;18.60;98.00;;;;;;5092784;28;20551;-67
2021/07/17 02:15:26;;;;;;;2.60;1.77;;;18.40;98.00;;;;;;5092758;28;20490;-68
2021/07/17 02:17:54;;;;;;;2.27;1.97;;;18.50;98.00;;;;;;5092955;28;20501;-68
2021/07/17 02:20:21;;;;;;;1.70;1.50;;;18.40;98.00;;;;;;5092677;28;20537;-68
2021/07/17 02:22:48;;;;;;;1.70;1.60;;;18.40;98.00;;;;;;5092671;28;20859;-67
2021/07/17 02:25:16;;;;;;;2.40;2.20;;;18.40;98.00;;;;;;5092450;28;20517;-67
2021/07/17 02:27:46;;;;;;;1.47;1.30;;;18.40;98.00;;;;;;5092788;28;20536;-68
2021/07/17 02:30:14;;;;;;;2.80;1.73;;;18.30;98.00;;;;;;5092630;28;20460;-68
2021/07/17 02:32:43;;;;;;;2.53;1.37;;;18.30;98.00;;;;;;5092661;28;20560;-68
2021/07/17 02:35:10;;;;;;;2.17;1.60;;;18.20;98.00;;;;;;5092546;28;20452;-68
2021/07/17 02:37:37;;;;;;;1.30;1.27;;;18.10;98.00;;;;;;5092337;28;20488;-68
2021/07/17 02:40:05;;;;;;;1.80;1.47;;;18.20;98.00;;;;;;5092205;28;20485;-68
2021/07/17 02:42:33;;;;;;;2.27;2.07;;;18.30;98.00;;;;;;5092331;28;20505;-68
2021/07/17 02:45:00;;;;;;;1.90;1.60;;;18.20;98.00;;;;;;5092557;28;20451;-68
2021/07/17 02:47:27;;;;;;;4.17;1.53;;;18.20;98.00;;;;;;5092258;28;20868;-67
2021/07/17 02:49:56;;;;;;;2.03;1.50;;;18.20;98.00;;;;;;5091298;28;20456;-68
2021/07/17 02:52:23;;;;;;;2.23;1.80;;;18.20;98.00;;;;;;5092378;28;20918;-68
2021/07/17 02:54:56;;;;;;;2.93;2.10;;;18.10;98.00;;;;;;5092427;28;20947;-67
2021/07/17 02:57:23;;;;;;;1.90;1.80;;;18.10;98.00;;;;;;5091122;28;20460;-68
2021/07/17 02:59:50;;;;;;;3.33;2.20;;;18.20;98.00;;;;;;5092683;28;20520;-68
2021/07/17 03:02:17;;;;;;;1.47;1.30;;;18.20;98.00;;;;;;5092375;28;20452;-68
2021/07/17 03:04:44;;;;;;;1.80;1.70;;;18.10;98.00;;;;;;5092107;28;21000;-67
2021/07/17 03:07:13;;;;;;;1.50;1.50;;;18.10;98.00;;;;;;5091694;28;20556;-68
2021/07/17 03:09:41;;;;;;;1.37;1.33;;;18.00;98.00;;;;;;5092075;28;20543;-67
2021/07/17 03:12:09;;;;;;;2.33;2.00;;;17.90;98.00;;;;;;5092069;28;20604;-68
2021/07/17 03:14:36;;;;;;;3.00;1.93;;;17.90;98.00;;;;;;5091911;28;20505;-68
2021/07/17 03:17:03;;;;;;;1.80;1.67;;;17.90;98.00;;;;;;5091619;28;20942;-68
2021/07/17 03:19:30;;;;;;;2.63;2.43;;;17.90;98.00;;;;;;5091902;28;20496;-68
2021/07/17 03:21:57;;;;;;;2.37;1.97;;;18.00;98.00;;;;;;5091530;28;20914;-68
2021/07/17 03:24:26;;;;;;;1.80;1.50;;;18.10;98.00;;;;;;5091598;28;20463;-68
2021/07/17 03:26:54;;;;;;;2.00;1.80;;;18.00;98.00;;;;;;5091782;28;20509;-68
2021/07/17 03:29:21;;;;;;;2.20;1.57;;;18.00;98.00;;;;;;5091846;28;20496;-68
2021/07/17 03:31:48;;;;;;;1.70;1.60;;;17.90;98.00;;;;;;5091603;28;20484;-67
2021/07/17 03:34:15;;;;;;;2.10;1.80;;;18.00;98.00;;;;;;5091842;28;20491;-67
2021/07/17 03:36:42;;;;;;;2.50;1.33;;;18.00;98.00;;;;;;5091772;28;20492;-68
2021/07/17 03:39:10;;;;;;;1.87;1.67;;;18.00;98.00;;;;;;5091577;28;20960;-68
2021/07/17 03:41:38;;;;;;;1.67;1.40;;;18.00;98.00;;;;;;5091680;28;20876;-67
2021/07/17 03:44:06;;;;;;;2.17;1.67;;;18.00;98.00;;;;;;5091682;28;21012;-68
2021/07/17 03:46:35;;;;;;;3.10;1.97;;;17.90;98.00;;;;;;5091626;28;20547;-68
2021/07/17 03:49:02;;;;;;;1.60;1.30;;;18.00;98.00;;;;;;5091663;28;20463;-68
2021/07/17 03:51:31;;;;;;;1.83;1.73;;;18.00;98.00;;;;;;5095729;28;20528;-68
2021/07/17 03:53:58;;;;;;;2.67;1.60;;;18.00;98.00;;;;;;5061481;28;20497;-67
2021/07/17 03:56:25;;;;;;;2.00;1.30;;;18.00;98.00;;;;;;5095606;28;20456;-68
2021/07/17 03:58:53;;;;;;;2.03;1.50;;;18.10;98.00;;;;;;5095713;28;20498;-68
2021/07/17 04:01:21;;;;;;;1.63;1.60;;;18.10;98.00;;;;;;5094322;28;20865;-68
2021/07/17 04:03:50;;;;;;;2.03;1.90;;;18.10;98.00;;;;;;5095768;28;20451;-68
2021/07/17 04:06:17;;;;;;;2.33;1.93;;;18.10;98.00;;;;;;5094146;28;20455;-68
2021/07/17 04:08:44;;;;;;;1.53;1.53;;;18.10;98.00;;;;;;5095367;28;20464;-68
2021/07/17 04:11:11;;;;;;;2.03;1.40;;;18.10;98.00;;;;;;5095647;28;20470;-68
2021/07/17 04:13:38;;;;;;;2.33;1.90;;;18.00;98.00;;;;;;5095405;28;20555;-67
2021/07/17 04:16:07;;;;;;;2.23;1.90;;;18.20;98.00;;;;;;5095467;28;20512;-68
2021/07/17 04:18:35;;;;;;;2.00;1.43;;;18.20;98.00;;;;;;5095742;28;20455;-68
2021/07/17 04:21:02;;;;;;;1.60;1.40;;;18.20;98.00;;;;;;5095355;28;20513;-69
2021/07/17 04:23:29;;;;;;;2.97;1.70;;;18.30;98.00;;;;;;5095129;28;20865;-68
2021/07/17 04:25:57;;;;;;;1.90;1.80;;;18.20;98.00;;;;;;5095115;28;20501;-67
2021/07/17 04:28:24;;;;;;;2.43;1.60;;;18.40;98.00;;;;;;5093795;28;20491;-68
2021/07/17 04:30:51;;;;;;;1.87;1.83;;;18.30;98.00;;;;;;5094938;28;20524;-68
2021/07/17 04:33:21;;;;;;;2.77;1.80;;;18.20;98.00;;;;;;5094762;28;20810;-68
2021/07/17 04:35:51;;;;;;;1.77;1.77;;;18.20;98.00;;;;;;5094755;28;20448;-68
2021/07/17 04:38:18;;;;;;;1.50;1.47;;;18.10;98.00;;;;;;5094859;28;20484;-67
2021/07/17 04:40:45;;;;;;;1.63;1.53;;;18.00;98.00;;;;;;5094945;28;20499;-68
2021/07/17 04:43:13;;;;;;;1.67;1.63;;;18.20;98.00;;;;;;5094616;28;20491;-68
2021/07/17 04:45:40;;;;;;;2.37;2.00;;;18.30;98.00;;;;;;5094453;28;20455;-68
2021/07/17 04:48:08;;;;;;;2.03;1.33;;;18.30;98.00;;;;;;5094541;28;20487;-67
2021/07/17 04:50:37;;;;;;;3.50;2.50;;;18.30;98.00;;;;;;5094626;28;20513;-68
2021/07/17 04:53:05;;;;;;;2.03;1.50;;;18.20;98.00;;;;;;5094274;28;20490;-68
2021/07/17 04:55:32;;;;;;;1.90;1.50;;;18.20;98.00;;;;;;5094845;28;20509;-68
2021/07/17 04:57:59;;;;;;;2.30;1.67;;;18.20;98.00;;;;;;5094151;28;20487;-67
2021/07/17 05:00:26;;;;;;;2.07;1.50;;;18.10;98.00;;;;;;5094379;28;20950;-68
2021/07/17 05:02:56;;;;;;;1.90;1.50;;;18.10;98.00;;;;;;5093549;28;20451;-67
2021/07/17 05:05:25;;;;;;;2.70;1.90;;;18.00;98.00;;;;;;5094444;28;20543;-69
2021/07/17 05:07:54;;;;;;;2.27;1.80;;;18.00;98.00;;;;;;5094178;28;20492;-68
2021/07/17 05:10:24;;;;;;;1.80;1.47;;;18.10;98.00;;;;;;5094437;28;20447;-68
2021/07/17 05:12:51;;;;;;;2.13;1.67;;;18.00;98.00;;;;;;5093986;28;20542;-67
2021/07/17 05:15:19;;;;;;;1.73;1.50;;;18.10;98.00;;;;;;5094248;28;20488;-68
2021/07/17 05:17:47;;;;;;;1.87;1.33;;;18.00;98.00;;;;;;5094140;28;20452;-68
2021/07/17 05:20:15;;;;;;;2.90;2.03;;;18.00;98.00;;;;;;5093812;28;20464;-68
2021/07/17 05:22:42;;;;;;;1.83;1.47;;;17.90;98.00;;;;;;5093997;28;20480;-68
2021/07/17 05:25:11;;;;;;;1.60;1.60;;;17.90;98.00;;;;;;5093714;28;20460;-68
2021/07/17 05:27:38;;;;;;;1.70;1.30;;;17.90;98.00;;;;;;5093934;28;20456;-68
2021/07/17 05:30:06;;;;;;;5.10;1.80;;;17.90;98.00;;;;;;5093971;28;20992;-68
2021/07/17 05:32:34;;;;;;;4.60;1.43;;;17.90;98.00;;;;;;5093782;28;20831;-67
2021/07/17 05:35:02;;;;;;;2.03;1.87;;;17.80;98.00;;;;;;5092483;28;20514;-68
2021/07/17 05:37:30;;;;;;;2.03;1.73;;;17.90;98.00;;;;;;5093866;28;20491;-68
2021/07/17 05:39:57;;;;;;;1.83;1.73;;;17.90;98.00;;;;;;5093905;28;20790;-68
2021/07/17 05:42:26;;;;;;;2.53;1.90;;;17.90;98.00;;;;;;5093640;28;20479;-69
2021/07/17 05:44:53;;;;;;;1.60;1.50;;;17.90;98.00;;;;;;5093653;28;20525;-68
2021/07/17 05:47:20;;;;;;;1.63;1.53;;;17.90;98.00;;;;;;5093416;28;20513;-68
2021/07/17 05:49:47;;;;;;;1.73;1.70;;;17.80;98.00;;;;;;5093646;28;20456;-68
2021/07/17 05:52:14;;;;;;;4.53;1.57;;;17.80;98.00;;;;;;5093207;28;20515;-68
2021/07/17 05:54:42;;;;;;;2.03;1.80;;;17.80;98.00;;;;;;5093247;28;20488;-68
2021/07/17 05:57:09;;;;;;;2.47;1.73;;;17.70;98.00;;;;;;5093054;28;20578;-68
2021/07/17 05:59:38;;;;;;;1.80;1.70;;;17.70;98.00;;;;;;5093245;28;20490;-67
2021/07/17 06:02:05;;;;;;;2.60;1.80;;;17.70;98.00;;;;;;5093092;28;20513;-67
2021/07/17 06:04:32;;;;;;;1.33;1.27;;;17.80;98.00;;;;;;5093214;28;20456;-67
2021/07/17 06:06:59;;;;;;;1.80;1.73;;;18.10;98.00;;;;;;5093177;28;20512;-66
2021/07/17 06:09:26;;;;;;;1.53;1.43;;;18.20;98.00;;;;;;5093054;28;20455;-66
2021/07/17 06:11:53;;;;;;;1.60;1.30;;;18.30;98.00;;;;;;5092839;28;20459;-67
2021/07/17 06:14:21;;;;;;;1.60;1.50;;;18.30;98.00;;;;;;5091985;28;20456;-68
2021/07/17 06:16:50;;;;;;;2.20;2.00;;;18.50;98.00;;;;;;5092902;28;20560;-67
2021/07/17 06:19:17;;;;;;;1.43;1.40;;;18.60;98.00;;;;;;5092270;28;20448;-68
2021/07/17 06:21:44;;;;;;;1.60;1.53;;;18.50;98.00;;;;;;5092734;28;20517;-68
2021/07/17 06:24:11;;;;;;;1.83;1.40;;;18.70;98.00;;;;;;5092813;28;20459;-67
2021/07/17 06:26:38;;;;;;;1.80;1.67;;;19.00;98.00;;;;;;5092678;28;20844;-68
2021/07/17 06:29:05;;;;;;;1.77;1.60;;;19.30;98.00;;;;;;5092569;28;20508;-67
2021/07/17 06:31:32;;;;;;;2.03;1.67;;;19.60;98.00;;;;;;5092750;28;20460;-68
2021/07/17 06:34:01;;;;;;;3.37;2.47;;;19.90;98.00;;;;;;5092571;28;20480;-67
2021/07/17 06:36:28;;;;;;;1.83;1.67;;;20.10;98.00;;;;;;5092328;28;20472;-68
2021/07/17 06:38:58;;;;;;;1.67;1.63;;;20.30;98.00;;;;;;5091256;28;20456;-68
2021/07/17 06:41:25;;;;;;;1.50;1.40;;;20.40;98.00;;;;;;5092141;28;20459;-67
2021/07/17 06:43:52;;;;;;;3.53;2.07;;;20.60;98.00;;;;;;5091133;28;20507;-68
2021/07/17 06:46:19;;;;;;;1.80;1.50;;;20.20;98.00;;;;;;5092346;28;20459;-67
2021/07/17 06:48:48;;;;;;;1.63;1.60;;;20.30;98.00;;;;;;5090993;28;20927;-67
2021/07/17 06:51:17;;;;;;;2.87;2.27;;;20.00;98.00;;;;;;5092489;28;20961;-67
2021/07/17 06:53:44;;;;;;;2.50;1.80;;;19.80;98.00;;;;;;5092175;28;20566;-67
2021/07/17 06:56:13;;;;;;;1.60;1.53;;;19.50;98.00;;;;;;5096918;28;20478;-65
2021/07/17 06:58:40;;;;;;;2.07;1.80;;;19.50;98.00;;;;;;5111707;28;20443;-67
2021/07/17 07:01:07;;;;;;;2.60;1.90;;;19.30;98.00;;;;;;5112535;28;20879;-67
2021/07/17 07:03:34;;;;;;;3.43;2.30;;;19.20;98.00;;;;;;5110571;28;20497;-66
2021/07/17 07:06:01;;;;;;;2.07;1.87;;;19.10;98.00;;;;;;5112131;28;20495;-67
2021/07/17 07:08:29;;;;;;;1.90;1.87;;;19.00;98.00;;;;;;5111120;28;20965;-67
2021/07/17 07:10:56;;;;;;;3.60;3.10;;;18.70;98.00;;;;;;5110824;28;20921;-67
2021/07/17 07:13:23;;;;;;;3.00;1.80;;;18.60;98.00;;;;;;5111479;28;20486;-67
2021/07/17 07:15:50;;;;;;;2.80;2.10;;;18.40;98.00;;;;;;5112390;28;20512;-67
2021/07/17 07:18:17;;;;;;;2.80;1.90;;;18.40;98.00;;;;;;5111011;28;20466;-67
2021/07/17 07:20:44;;;;;;;2.67;1.60;;;18.30;98.00;;;;;;5112282;28;20883;-67
2021/07/17 07:23:12;;;;;;;2.30;1.73;;;18.30;98.00;;;;;;5112274;28;20451;-66
2021/07/17 07:25:44;;;;;;;3.70;1.90;;;18.60;98.00;;;;;;5111654;28;20467;-67
2021/07/17 07:28:11;;;;;;;2.40;1.83;;;18.60;98.00;;;;;;5111979;28;20915;-67
2021/07/17 07:30:38;;;;;;;1.63;1.53;;;18.50;98.00;;;;;;5112300;28;20870;-67
2021/07/17 07:33:05;;;;;;;2.00;1.60;;;18.40;98.00;;;;;;5111939;28;20478;-67
2021/07/17 07:35:32;;;;;;;2.40;1.60;;;18.60;98.00;;;;;;5111999;28;20523;-67
2021/07/17 07:37:59;;;;;;;3.20;1.83;;;18.70;98.00;;;;;;5112030;28;20491;-67
2021/07/17 07:40:29;;;;;;;1.70;1.70;;;18.60;98.00;;;;;;5111998;28;20871;-67
2021/07/17 07:42:57;;;;;;;3.20;1.90;;;18.70;98.00;;;;;;5111913;28;21085;-67
2021/07/17 07:45:26;;;;;;;2.50;2.17;;;18.80;98.00;;;;;;5110866;28;20459;-67
2021/07/17 07:47:53;;;;;;;2.97;1.80;;;18.70;98.00;;;;;;5111993;28;20451;-67
2021/07/17 07:50:21;;;;;;;1.37;1.30;;;18.70;98.00;;;;;;5112010;28;20528;-67
2021/07/17 07:52:48;;;;;;;3.57;2.07;;;18.70;98.00;;;;;;5111562;28;21216;-67
2021/07/17 07:55:16;;;;;;;2.10;1.93;;;18.80;98.00;;;;;;5112116;28;20821;-67
2021/07/17 07:57:44;;;;;;;1.90;1.80;;;18.90;98.00;;;;;;5111863;28;20836;-67
2021/07/17 08:00:14;;;;;;;2.50;2.20;;;18.90;98.00;;;;;;5112037;28;20455;-67
2021/07/17 08:02:42;;;;;;;4.60;2.70;;;18.80;98.00;;;;;;5111788;28;20872;-67
2021/07/17 08:05:10;;;;;;;2.13;1.60;;;18.80;98.00;;;;;;5112041;28;20462;-67
2021/07/17 08:07:37;;;;;;;1.90;1.83;;;18.90;98.00;;;;;;5111945;28;20849;-67
2021/07/17 08:10:05;;;;;;;1.70;1.63;;;19.00;98.00;;;;;;5111943;28;20478;-67
2021/07/17 08:12:32;;;;;;;1.73;1.67;;;19.00;98.00;;;;;;5111598;28;20486;-67
2021/07/17 08:14:59;;;;;;;2.33;1.50;;;19.00;98.00;;;;;;5110808;28;20517;-67
2021/07/17 08:17:29;;;;;;;2.17;1.53;;;19.00;98.00;;;;;;5109791;28;20482;-67
2021/07/17 08:19:56;;;;;;;1.60;1.50;;;19.10;98.00;;;;;;5111136;28;20443;-67
2021/07/17 08:22:23;;;;;;;1.93;1.83;;;18.90;98.00;;;;;;5109454;28;20463;-67
2021/07/17 08:24:51;;;;;;;3.93;1.60;;;18.90;98.00;;;;;;5111144;28;20501;-67
2021/07/17 08:27:17;;;;;;;1.57;1.47;;;18.80;98.00;;;;;;5111533;28;20532;-67
2021/07/17 08:29:52;;;;;;;1.87;1.80;;;18.80;98.00;;;;;;5111476;28;20459;-67
2021/07/17 08:32:19;;;;;;;3.37;2.07;;;18.80;98.00;;;;;;5111554;28;20789;-67
2021/07/17 08:34:51;;;;;;;1.90;1.60;;;18.90;98.00;;;;;;5111584;28;21176;-67
2021/07/17 08:37:18;;;;;;;2.13;1.60;;;18.90;98.00;;;;;;5113413;28;20451;-67
2021/07/17 08:39:45;;;;;;;2.30;1.70;;;18.90;98.00;;;;;;5115018;28;20451;-67
2021/07/17 08:42:17;;;;;;;3.13;1.60;;;19.10;98.00;;;;;;5115196;28;20459;-67
2021/07/17 08:44:48;;;;;;;3.03;1.80;;;19.10;98.00;;;;;;5096998;28;21028;-67
2021/07/17 08:47:17;;;;;;;3.30;2.40;;;19.00;98.00;;;;;;5114806;28;20515;-67
2021/07/17 08:49:47;;;;;;;3.33;1.53;;;19.10;98.00;;;;;;5115189;28;20459;-67
2021/07/17 08:52:15;;;;;;;3.60;1.83;;;19.20;98.00;;;;;;5115090;28;20486;-67
2021/07/17 08:54:43;;;;;;;3.13;1.80;;;19.30;98.00;;;;;;5114655;28;20483;-67
2021/07/17 08:57:11;;;;;;;1.80;1.30;;;19.40;98.00;;;;;;5114813;28;20478;-67
2021/07/17 08:59:38;;;;;;;1.93;1.60;;;19.40;98.00;;;;;;5114640;28;20447;-67
2021/07/17 09:02:06;;;;;;;2.13;1.50;;;19.40;98.00;;;;;;5114675;28;20463;-67
2021/07/17 09:04:33;;;;;;;2.10;1.80;;;19.30;98.00;;;;;;5114526;28;20499;-67
2021/07/17 09:07:02;;;;;;;2.33;1.53;;;19.30;98.00;;;;;;5114709;28;20859;-67
2021/07/17 09:09:34;;;;;;;2.33;1.67;;;19.40;98.00;;;;;;5114534;28;20493;-67
2021/07/17 09:12:01;;;;;;;3.30;2.33;;;19.40;98.00;;;;;;5113909;28;20451;-67
2021/07/17 09:14:39;;;;;;;1.93;1.90;;;19.40;98.00;;;;;;5114359;28;20564;-67
2021/07/17 09:17:07;;;;;;;2.17;1.83;;;19.50;98.00;;;;;;5114745;28;20458;-67
2021/07/17 09:19:34;;;;;;;2.23;1.97;;;19.50;98.00;;;;;;5114478;28;20882;-67
2021/07/17 09:22:03;;;;;;;4.70;2.63;;;19.60;98.00;;;;;;5114440;28;20479;-67
2021/07/17 09:24:30;;;;;;;2.33;2.13;;;19.60;98.00;;;;;;5114608;28;20606;-67
2021/07/17 09:27:00;;;;;;;1.90;1.40;;;19.50;98.00;;;;;;5114474;28;20455;-67
2021/07/17 09:29:37;;;;;;;2.47;2.00;;;19.50;98.00;;;;;;5114435;28;20498;-67
2021/07/17 09:32:08;;;;;;;1.67;1.50;;;19.50;98.00;;;;;;5114429;28;20454;-67
2021/07/17 09:34:35;;;;;;;2.40;2.20;;;19.50;98.00;;;;;;5114483;28;20486;-67
2021/07/17 09:37:09;;;;;;;1.73;1.60;;;19.50;98.00;;;;;;5114312;28;20520;-67
2021/07/17 09:39:38;;;;;;;4.63;2.23;;;19.50;98.00;;;;;;5114384;28;20454;-67
2021/07/17 09:42:08;;;;;;;3.03;2.43;;;19.50;98.00;;;;;;5114415;28;20940;-66
2021/07/17 09:44:36;;;;;;;1.50;1.40;;;19.50;98.00;;;;;;5113804;28;20455;-67
2021/07/17 09:47:15;;;;;;;2.70;2.10;;;19.40;98.00;;;;;;5113946;28;20459;-68
2021/07/17 09:49:43;;;;;;;1.60;1.50;;;19.40;98.00;;;;;;5113844;28;20523;-67
2021/07/17 09:52:14;;;;;;;2.97;2.00;;;19.40;98.00;;;;;;5113630;28;20503;-67
2021/07/17 09:55:01;;;;;;;2.73;2.47;;;19.50;98.00;;;;;;5113367;28;20474;-67
2021/07/17 09:57:29;;;;;;;1.63;1.63;;;19.60;98.00;;;;;;5113390;28;20487;-67
2021/07/17 10:00:07;;;;;;;2.33;2.00;;;19.50;98.00;;;;;;5113661;28;20457;-67
2021/07/17 10:02:36;;;;;;;2.10;1.97;;;19.70;98.00;;;;;;5113498;28;20505;-67
2021/07/17 10:05:03;;;;;;;3.53;1.83;;;19.80;98.00;;;;;;5113642;28;20893;-67
2021/07/17 10:07:31;;;;;;;2.43;1.90;;;20.00;98.00;;;;;;5113256;28;20477;-66
2021/07/17 10:09:59;;;;;;;2.20;2.00;;;20.20;98.00;;;;;;5113601;28;20493;-67
2021/07/17 10:12:33;;;;;;;1.93;1.83;;;20.30;98.00;;;;;;5113209;28;20490;-67
2021/07/17 10:15:02;;;;;;;3.90;1.90;;;20.20;98.00;;;;;;5113229;28;20482;-67
2021/07/17 10:17:36;;;;;;;2.13;1.83;;;20.20;98.00;;;;;;5111908;28;20949;-67
2021/07/17 10:20:06;;;;;;;2.33;2.10;;;20.10;98.00;;;;;;5113298;28;20494;-67
2021/07/17 10:22:36;;;;;;;2.33;1.80;;;20.00;98.00;;;;;;5112967;28;20490;-67
2021/07/17 10:25:04;;;;;;;2.63;2.10;;;19.90;98.00;;;;;;5113184;28;20502;-67
2021/07/17 10:27:32;;;;;;;1.67;1.40;;;19.90;98.00;;;;;;5111764;28;20563;-67
2021/07/17 10:29:59;;;;;;;1.90;1.77;;;20.10;98.00;;;;;;5113094;28;20483;-67
2021/07/17 10:32:26;;;;;;;4.27;2.13;;;20.20;98.00;;;;;;5113082;28;20486;-67
2021/07/17 10:34:53;;;;;;;1.67;1.50;;;20.10;98.00;;;;;;5113168;28;20555;-67
2021/07/17 10:37:22;;;;;;;3.10;2.03;;;20.20;98.00;;;;;;5113350;28;20855;-67
2021/07/17 10:40:04;;;;;;;2.47;2.10;;;20.10;98.00;;;;;;5112918;28;20449;-67
2021/07/17 10:42:32;;;;;;;3.60;2.03;;;20.00;98.00;;;;;;5112894;28;20481;-67
2021/07/17 10:44:59;;;;;;;1.90;1.80;;;20.10;98.00;;;;;;5111723;28;20574;-67
2021/07/17 10:47:37;;;;;;;2.60;1.90;;;20.20;98.00;;;;;;5112860;28;20508;-67
2021/07/17 10:50:05;;;;;;;2.47;1.67;;;20.20;98.00;;;;;;5112922;28;20493;-67
2021/07/17 10:52:37;;;;;;;4.40;2.07;;;20.30;98.00;;;;;;5112773;28;20467;-67
2021/07/17 10:55:28;;;;;;;1.93;1.77;;;20.40;98.00;;;;;;5113000;28;20573;-67
2021/07/17 10:57:59;;;;;;;3.20;2.10;;;20.60;98.00;;;;;;5112823;28;20477;-67
2021/07/17 11:00:46;;;;;;;2.67;1.80;;;20.90;98.00;;;;;;5112241;28;20799;-67
2021/07/17 11:03:18;;;;;;;1.67;1.60;;;21.10;98.00;;;;;;5112803;28;20451;-67
2021/07/17 11:05:46;;;;;;;2.17;1.77;;;21.20;98.00;;;;;;5112390;28;20447;-67
2021/07/17 11:08:31;;;;;;;1.50;1.43;;;21.30;98.00;;;;;;5112549;28;20506;-67
2021/07/17 11:11:00;;;;;;;2.57;1.80;;;21.30;98.00;;;;;;5112350;28;20460;-67
2021/07/17 11:13:33;;;;;;;1.60;1.57;;;21.30;98.00;;;;;;5112069;28;20458;-67
2021/07/17 11:16:00;;;;;;;1.97;1.90;;;21.30;98.00;;;;;;5111125;28;20458;-67
2021/07/17 11:18:39;;;;;;;5.43;2.00;;;21.40;98.00;;;;;;5112217;28;20556;-67
2021/07/17 11:21:09;;;;;;;3.97;2.30;;;21.40;98.00;;;;;;5112269;28;20446;-67
2021/07/17 11:23:47;;;;;;;2.67;1.70;;;21.30;98.00;;;;;;5112243;28;20554;-67
2021/07/17 11:26:23;;;;;;;2.70;2.37;;;21.30;98.00;;;;;;5111599;28;20466;-67
2021/07/17 11:28:56;;;;;;;1.80;1.70;;;21.30;98.00;;;;;;5112121;28;20520;-67
2021/07/17 11:31:47;;;;;;;2.07;1.93;;;21.40;98.00;;;;;;5112063;28;20822;-67
2021/07/17 11:34:36;;;;;;;4.47;2.30;;;21.40;98.00;;;;;;5112227;28;20489;-67
2021/07/17 11:37:10;;;;;;;1.67;1.57;;;21.50;98.00;;;;;;5111918;28;20455;-67
2021/07/17 11:39:40;;;;;;;2.03;1.73;;;21.50;98.00;;;;;;5112151;28;20795;-67
2021/07/17 11:42:11;;;;;;;2.40;2.20;;;21.50;98.00;;;;;;5111831;28;20516;-67
2021/07/17 11:44:41;;;;;;;2.23;1.73;;;21.50;98.00;;;;;;5112018;28;20522;-67
2021/07/17 11:47:11;;;;;;;2.13;2.00;;;21.60;98.00;;;;;;5111924;28;20512;-67
2021/07/17 11:49:42;;;;;;;1.80;1.77;;;21.60;98.00;;;;;;5112086;28;20535;-67
2021/07/17 11:52:11;;;;;;;2.77;2.20;;;21.60;98.00;;;;;;5112173;28;20912;-66
2021/07/17 11:54:40;;;;;;;1.60;1.60;;;21.60;98.00;;;;;;5111869;28;20531;-67
2021/07/17 11:57:13;;;;;;;2.07;1.87;;;21.50;98.00;;;;;;5112082;28;20486;-67
2021/07/17 11:59:42;;;;;;;1.60;1.50;;;21.30;98.00;;;;;;5112050;28;20867;-67
2021/07/17 12:02:11;;;;;;;1.67;1.60;;;21.30;98.00;;;;;;5111925;28;20487;-67
2021/07/17 12:04:42;;;;;;;3.10;2.47;;;21.20;98.00;;;;;;5112190;28;20451;-67
2021/07/17 12:07:12;;;;;;;1.73;1.70;;;21.10;98.00;;;;;;5111815;28;20454;-67
2021/07/17 12:09:42;;;;;;;2.40;2.03;;;21.20;98.00;;;;;;5112007;28;20451;-67
2021/07/17 12:12:19;;;;;;;2.50;2.03;;;21.30;98.00;;;;;;5115391;28;20453;-66
2021/07/17 12:14:48;;;;;;;2.80;1.90;;;21.10;98.00;;;;;;5115921;28;20479;-67
2021/07/17 12:17:25;;;;;;;2.53;2.00;;;21.10;98.00;;;;;;5115972;28;20515;-67
2021/07/17 12:20:08;;;;;;;2.70;2.37;;;21.10;98.00;;;;;;5115815;28;21005;-67
2021/07/17 12:22:44;;;;;;;2.67;1.93;;;21.10;98.00;;;;;;5115940;28;20462;-67
2021/07/17 12:25:16;;;;;;;1.93;1.63;;;21.20;98.00;;;;;;5115590;28;21028;-67
2021/07/17 12:28:15;;;;;;;2.07;1.77;;;21.20;98.00;;;;;;5115588;28;20929;-66
2021/07/17 12:30:46;;;;;;;2.47;1.93;;;21.30;98.00;;;;;;5115263;28;20964;-67
2021/07/17 12:33:26;;;;;;;2.83;2.40;;;21.30;98.00;;;;;;5115244;28;20486;-67
2021/07/17 12:36:01;;;;;;;2.70;1.80;;;21.20;98.00;;;;;;5114031;28;20481;-67
2021/07/17 12:38:32;;;;;;;2.40;2.00;;;21.00;98.00;;;;;;5114894;28;20479;-67
2021/07/17 12:41:02;;;;;;;2.33;2.00;;;20.90;98.00;;;;;;5113817;28;20481;-67
2021/07/17 12:43:33;;;;;;;3.40;2.63;;;20.80;98.00;;;;;;5115093;28;20979;-67
2021/07/17 12:46:15;;;;;;;2.43;1.90;;;20.80;98.00;;;;;;5115121;28;20446;-67
2021/07/17 12:48:49;;;;;;;2.60;2.43;;;20.90;98.00;;;;;;5115078;28;21022;-67
2021/07/17 12:51:24;;;;;;;2.63;2.10;;;20.90;98.00;;;;;;5115068;28;20481;-67
2021/07/17 12:53:52;;;;;;;1.60;1.43;;;20.90;98.00;;;;;;5114760;28;20498;-66
2021/07/17 12:56:31;;;;;;;2.93;1.90;;;20.90;98.00;;;;;;5114891;28;20515;-67
2021/07/17 12:59:01;;;;;;;4.23;2.80;;;20.90;98.00;;;;;;5114745;28;20504;-67